sensor_id;sensor_type;location;lat;lon;timestamp;P1;durP1;ratioP1;P2;durP2;ratioP2
3547;SDS011;1788;49.400;11.092;2023-02-13T00:01:58;7.47;;;4.00;;
3547;SDS011;1788;49.400;11.092;2023-02-13T00:04:24;7.47;;;4.60;;
3547;SDS011;1788;49.400;11.092;2023-02-13T00:06:51;5.40;;;4.87;;
3547;SDS011;1788;49.400;11.092;2023-02-13T00:09:18;7.57;;;4.73;;
3547;SDS011;1788;49.400;11.092;2023-02-13T00:11:44;6.00;;;4.43;;
3547;SDS011;1788;49.400;11.092;2023-02-13T00:14:11;7.20;;;5.10;;
3547;SDS011;1788;49.400;11.092;2023-02-13T00:16:37;6.33;;;4.60;;
3547;SDS011;1788;49.400;11.092;2023-02-13T00:19:05;7.77;;;4.80;;
3547;SDS011;1788;49.400;11.092;2023-02-13T00:21:32;8.93;;;5.93;;
3547;SDS011;1788;49.400;11.092;2023-02-13T00:23:58;10.93;;;6.07;;
3547;SDS011;1788;49.400;11.092;2023-02-13T00:26:25;9.90;;;6.20;;
3547;SDS011;1788;49.400;11.092;2023-02-13T00:28:51;12.97;;;7.97;;
3547;SDS011;1788;49.400;11.092;2023-02-13T00:31:19;12.90;;;7.70;;
3547;SDS011;1788;49.400;11.092;2023-02-13T00:33:45;16.23;;;9.97;;
3547;SDS011;1788;49.400;11.092;2023-02-13T00:36:13;19.83;;;12.13;;
3547;SDS011;1788;49.400;11.092;2023-02-13T00:38:39;25.43;;;12.90;;
3547;SDS011;1788;49.400;11.092;2023-02-13T00:41:05;25.13;;;14.80;;
3547;SDS011;1788;49.400;11.092;2023-02-13T00:43:33;29.53;;;16.60;;
3547;SDS011;1788;49.400;11.092;2023-02-13T00:45:59;31.17;;;17.17;;
3547;SDS011;1788;49.400;11.092;2023-02-13T00:48:27;33.33;;;18.17;;
3547;SDS011;1788;49.400;11.092;2023-02-13T00:50:53;34.07;;;18.30;;
3547;SDS011;1788;49.400;11.092;2023-02-13T00:53:20;33.70;;;18.30;;
3547;SDS011;1788;49.400;11.092;2023-02-13T00:55:46;31.20;;;17.93;;
3547;SDS011;1788;49.400;11.092;2023-02-13T00:58:13;31.40;;;17.30;;
3547;SDS011;1788;49.400;11.092;2023-02-13T01:00:40;34.33;;;19.23;;
3547;SDS011;1788;49.400;11.092;2023-02-13T01:03:06;34.10;;;19.73;;
3547;SDS011;1788;49.400;11.092;2023-02-13T01:05:33;38.27;;;19.77;;
3547;SDS011;1788;49.400;11.092;2023-02-13T01:07:59;30.50;;;18.00;;
3547;SDS011;1788;49.400;11.092;2023-02-13T01:10:27;29.83;;;17.97;;
3547;SDS011;1788;49.400;11.092;2023-02-13T01:12:53;34.30;;;19.03;;
3547;SDS011;1788;49.400;11.092;2023-02-13T01:15:21;33.07;;;18.83;;
3547;SDS011;1788;49.400;11.092;2023-02-13T01:17:47;32.87;;;18.93;;
3547;SDS011;1788;49.400;11.092;2023-02-13T01:20:14;41.97;;;21.97;;
3547;SDS011;1788;49.400;11.092;2023-02-13T01:22:41;31.43;;;19.80;;
3547;SDS011;1788;49.400;11.092;2023-02-13T01:25:07;30.13;;;17.57;;
3547;SDS011;1788;49.400;11.092;2023-02-13T01:27:35;31.13;;;17.50;;
3547;SDS011;1788;49.400;11.092;2023-02-13T01:30:01;26.57;;;16.70;;
3547;SDS011;1788;49.400;11.092;2023-02-13T01:32:29;24.63;;;16.37;;
3547;SDS011;1788;49.400;11.092;2023-02-13T01:34:55;26.83;;;15.40;;
3547;SDS011;1788;49.400;11.092;2023-02-13T01:37:23;31.13;;;17.87;;
3547;SDS011;1788;49.400;11.092;2023-02-13T01:39:49;27.50;;;15.20;;
3547;SDS011;1788;49.400;11.092;2023-02-13T01:42:20;24.20;;;14.83;;
3547;SDS011;1788;49.400;11.092;2023-02-13T01:47:09;29.43;;;14.17;;
3547;SDS011;1788;49.400;11.092;2023-02-13T01:49:36;21.43;;;13.73;;
3547;SDS011;1788;49.400;11.092;2023-02-13T01:52:02;25.70;;;13.13;;
3547;SDS011;1788;49.400;11.092;2023-02-13T01:54:29;21.17;;;12.63;;
3547;SDS011;1788;49.400;11.092;2023-02-13T01:56:57;22.57;;;13.67;;
3547;SDS011;1788;49.400;11.092;2023-02-13T02:01:49;22.07;;;12.37;;
3547;SDS011;1788;49.400;11.092;2023-02-13T02:04:19;21.83;;;12.10;;
3547;SDS011;1788;49.400;11.092;2023-02-13T02:06:45;26.63;;;14.93;;
3547;SDS011;1788;49.400;11.092;2023-02-13T02:14:03;25.10;;;13.33;;
3547;SDS011;1788;49.400;11.092;2023-02-13T02:16:31;23.60;;;13.20;;
3547;SDS011;1788;49.400;11.092;2023-02-13T02:19:00;21.60;;;13.77;;
3547;SDS011;1788;49.400;11.092;2023-02-13T02:24:00;21.73;;;13.57;;
3547;SDS011;1788;49.400;11.092;2023-02-13T02:43:29;27.87;;;13.63;;
3547;SDS011;1788;49.400;11.092;2023-02-13T02:45:55;26.37;;;14.80;;
3547;SDS011;1788;49.400;11.092;2023-02-13T02:58:09;23.67;;;13.50;;
3547;SDS011;1788;49.400;11.092;2023-02-13T03:00:36;23.93;;;14.37;;
3547;SDS011;1788;49.400;11.092;2023-02-13T03:03:02;27.27;;;14.93;;
3547;SDS011;1788;49.400;11.092;2023-02-13T03:05:29;22.47;;;14.13;;
3547;SDS011;1788;49.400;11.092;2023-02-13T03:07:55;25.27;;;14.83;;
3547;SDS011;1788;49.400;11.092;2023-02-13T03:10:26;27.27;;;15.03;;
3547;SDS011;1788;49.400;11.092;2023-02-13T03:12:51;21.67;;;13.47;;
3547;SDS011;1788;49.400;11.092;2023-02-13T03:15:15;22.30;;;13.47;;
3547;SDS011;1788;49.400;11.092;2023-02-13T03:17:42;22.27;;;13.57;;
3547;SDS011;1788;49.400;11.092;2023-02-13T03:27:33;20.00;;;12.90;;
3547;SDS011;1788;49.400;11.092;2023-02-13T03:30:00;19.90;;;11.63;;
3547;SDS011;1788;49.400;11.092;2023-02-13T03:34:52;21.33;;;12.63;;
3547;SDS011;1788;49.400;11.092;2023-02-13T03:37:17;18.00;;;11.87;;
3547;SDS011;1788;49.400;11.092;2023-02-13T03:44:40;19.47;;;11.57;;
3547;SDS011;1788;49.400;11.092;2023-02-13T03:47:05;19.67;;;11.57;;
3547;SDS011;1788;49.400;11.092;2023-02-13T03:49:33;21.00;;;11.80;;
3547;SDS011;1788;49.400;11.092;2023-02-13T03:54:27;16.93;;;11.40;;
3547;SDS011;1788;49.400;11.092;2023-02-13T03:56:52;18.47;;;11.40;;
3547;SDS011;1788;49.400;11.092;2023-02-13T04:06:42;18.20;;;11.70;;
3547;SDS011;1788;49.400;11.092;2023-02-13T04:09:07;22.10;;;13.63;;
3547;SDS011;1788;49.400;11.092;2023-02-13T04:14:03;21.23;;;13.67;;
3547;SDS011;1788;49.400;11.092;2023-02-13T04:16:28;20.87;;;13.13;;
3547;SDS011;1788;49.400;11.092;2023-02-13T04:18:54;21.27;;;13.10;;
3547;SDS011;1788;49.400;11.092;2023-02-13T04:21:20;27.60;;;13.97;;
3547;SDS011;1788;49.400;11.092;2023-02-13T04:23:48;20.53;;;12.73;;
3547;SDS011;1788;49.400;11.092;2023-02-13T04:26:16;20.07;;;13.13;;
3547;SDS011;1788;49.400;11.092;2023-02-13T04:28:42;24.30;;;12.83;;
3547;SDS011;1788;49.400;11.092;2023-02-13T04:31:08;17.37;;;11.90;;
3547;SDS011;1788;49.400;11.092;2023-02-13T04:33:36;18.53;;;10.53;;
3547;SDS011;1788;49.400;11.092;2023-02-13T04:36:02;20.10;;;11.20;;
3547;SDS011;1788;49.400;11.092;2023-02-13T04:38:29;20.40;;;11.47;;
3547;SDS011;1788;49.400;11.092;2023-02-13T04:40:56;19.73;;;11.77;;
3547;SDS011;1788;49.400;11.092;2023-02-13T04:43:22;18.80;;;10.97;;
3547;SDS011;1788;49.400;11.092;2023-02-13T04:45:50;14.43;;;10.23;;
3547;SDS011;1788;49.400;11.092;2023-02-13T04:48:17;16.03;;;10.43;;
3547;SDS011;1788;49.400;11.092;2023-02-13T04:50:44;14.47;;;10.10;;
3547;SDS011;1788;49.400;11.092;2023-02-13T04:53:11;14.23;;;10.17;;
3547;SDS011;1788;49.400;11.092;2023-02-13T04:55:37;18.77;;;10.63;;
3547;SDS011;1788;49.400;11.092;2023-02-13T04:58:04;16.57;;;10.10;;
3547;SDS011;1788;49.400;11.092;2023-02-13T05:00:31;15.43;;;10.60;;
3547;SDS011;1788;49.400;11.092;2023-02-13T05:05:24;13.17;;;9.10;;
3547;SDS011;1788;49.400;11.092;2023-02-13T05:07:50;11.80;;;9.33;;
3547;SDS011;1788;49.400;11.092;2023-02-13T05:10:17;14.83;;;9.23;;
3547;SDS011;1788;49.400;11.092;2023-02-13T05:12:44;15.40;;;10.67;;
3547;SDS011;1788;49.400;11.092;2023-02-13T05:15:10;16.63;;;9.17;;
3547;SDS011;1788;49.400;11.092;2023-02-13T05:17:37;14.80;;;9.53;;
3547;SDS011;1788;49.400;11.092;2023-02-13T05:20:04;17.33;;;9.50;;
3547;SDS011;1788;49.400;11.092;2023-02-13T05:22:30;18.80;;;10.43;;
3547;SDS011;1788;49.400;11.092;2023-02-13T05:24:57;17.53;;;9.90;;
3547;SDS011;1788;49.400;11.092;2023-02-13T05:27:23;12.10;;;9.03;;
3547;SDS011;1788;49.400;11.092;2023-02-13T05:29:51;15.03;;;8.80;;
3547;SDS011;1788;49.400;11.092;2023-02-13T05:32:17;18.13;;;9.73;;
3547;SDS011;1788;49.400;11.092;2023-02-13T05:34:44;14.73;;;9.53;;
3547;SDS011;1788;49.400;11.092;2023-02-13T05:37:11;15.93;;;8.97;;
3547;SDS011;1788;49.400;11.092;2023-02-13T05:39:37;14.93;;;9.87;;
3547;SDS011;1788;49.400;11.092;2023-02-13T05:42:04;19.23;;;10.07;;
3547;SDS011;1788;49.400;11.092;2023-02-13T05:44:31;18.47;;;9.57;;
3547;SDS011;1788;49.400;11.092;2023-02-13T05:46:57;17.37;;;11.37;;
3547;SDS011;1788;49.400;11.092;2023-02-13T05:49:24;15.13;;;9.73;;
3547;SDS011;1788;49.400;11.092;2023-02-13T05:51:50;16.63;;;9.77;;
3547;SDS011;1788;49.400;11.092;2023-02-13T05:54:17;13.83;;;8.77;;
3547;SDS011;1788;49.400;11.092;2023-02-13T05:56:44;17.20;;;9.20;;
3547;SDS011;1788;49.400;11.092;2023-02-13T05:59:10;13.70;;;9.07;;
3547;SDS011;1788;49.400;11.092;2023-02-13T06:01:37;14.80;;;9.50;;
3547;SDS011;1788;49.400;11.092;2023-02-13T06:04:03;11.23;;;8.83;;
3547;SDS011;1788;49.400;11.092;2023-02-13T06:06:31;15.47;;;10.07;;
3547;SDS011;1788;49.400;11.092;2023-02-13T06:08:58;16.33;;;9.03;;
3547;SDS011;1788;49.400;11.092;2023-02-13T06:11:25;15.40;;;9.40;;
3547;SDS011;1788;49.400;11.092;2023-02-13T06:13:51;12.43;;;8.30;;
3547;SDS011;1788;49.400;11.092;2023-02-13T06:16:18;12.90;;;9.07;;
3547;SDS011;1788;49.400;11.092;2023-02-13T06:18:45;10.43;;;7.60;;
3547;SDS011;1788;49.400;11.092;2023-02-13T06:21:12;13.43;;;8.67;;
3547;SDS011;1788;49.400;11.092;2023-02-13T06:23:38;12.33;;;8.23;;
3547;SDS011;1788;49.400;11.092;2023-02-13T06:26:06;11.53;;;7.90;;
3547;SDS011;1788;49.400;11.092;2023-02-13T06:28:32;13.70;;;8.83;;
3547;SDS011;1788;49.400;11.092;2023-02-13T06:30:59;12.33;;;8.23;;
3547;SDS011;1788;49.400;11.092;2023-02-13T06:33:26;13.87;;;8.70;;
3547;SDS011;1788;49.400;11.092;2023-02-13T06:35:52;13.77;;;8.10;;
3547;SDS011;1788;49.400;11.092;2023-02-13T06:38:19;15.10;;;9.47;;
3547;SDS011;1788;49.400;11.092;2023-02-13T06:40:46;10.60;;;8.53;;
3547;SDS011;1788;49.400;11.092;2023-02-13T06:43:12;15.63;;;10.73;;
3547;SDS011;1788;49.400;11.092;2023-02-13T06:45:39;11.87;;;8.60;;
3547;SDS011;1788;49.400;11.092;2023-02-13T06:48:05;11.40;;;7.50;;
3547;SDS011;1788;49.400;11.092;2023-02-13T06:50:32;13.40;;;9.13;;
3547;SDS011;1788;49.400;11.092;2023-02-13T06:52:59;20.20;;;10.37;;
3547;SDS011;1788;49.400;11.092;2023-02-13T06:55:25;22.37;;;10.07;;
3547;SDS011;1788;49.400;11.092;2023-02-13T06:57:52;22.67;;;10.73;;
3547;SDS011;1788;49.400;11.092;2023-02-13T07:00:19;23.30;;;13.23;;
3547;SDS011;1788;49.400;11.092;2023-02-13T07:02:46;25.43;;;13.93;;
3547;SDS011;1788;49.400;11.092;2023-02-13T07:05:13;45.63;;;21.27;;
3547;SDS011;1788;49.400;11.092;2023-02-13T07:07:40;47.53;;;22.63;;
3547;SDS011;1788;49.400;11.092;2023-02-13T07:10:08;43.47;;;19.03;;
3547;SDS011;1788;49.400;11.092;2023-02-13T07:12:34;31.57;;;13.43;;
3547;SDS011;1788;49.400;11.092;2023-02-13T07:15:01;25.70;;;14.10;;
3547;SDS011;1788;49.400;11.092;2023-02-13T07:17:27;30.07;;;15.00;;
3547;SDS011;1788;49.400;11.092;2023-02-13T07:19:54;33.57;;;13.47;;
3547;SDS011;1788;49.400;11.092;2023-02-13T07:22:21;25.17;;;13.10;;
3547;SDS011;1788;49.400;11.092;2023-02-13T07:24:48;24.73;;;12.83;;
3547;SDS011;1788;49.400;11.092;2023-02-13T07:27:15;23.33;;;12.40;;
3547;SDS011;1788;49.400;11.092;2023-02-13T07:29:42;24.10;;;12.23;;
3547;SDS011;1788;49.400;11.092;2023-02-13T07:32:09;29.40;;;13.73;;
3547;SDS011;1788;49.400;11.092;2023-02-13T07:34:35;30.67;;;13.80;;
3547;SDS011;1788;49.400;11.092;2023-02-13T07:37:02;33.67;;;15.83;;
3547;SDS011;1788;49.400;11.092;2023-02-13T07:39:29;27.20;;;14.43;;
3547;SDS011;1788;49.400;11.092;2023-02-13T07:41:56;28.77;;;14.80;;
3547;SDS011;1788;49.400;11.092;2023-02-13T07:44:23;32.70;;;13.30;;
3547;SDS011;1788;49.400;11.092;2023-02-13T07:46:50;31.30;;;13.90;;
3547;SDS011;1788;49.400;11.092;2023-02-13T07:49:17;29.23;;;14.57;;
3547;SDS011;1788;49.400;11.092;2023-02-13T07:51:44;23.27;;;14.83;;
3547;SDS011;1788;49.400;11.092;2023-02-13T07:54:10;21.47;;;11.40;;
3547;SDS011;1788;49.400;11.092;2023-02-13T07:56:37;23.33;;;10.47;;
3547;SDS011;1788;49.400;11.092;2023-02-13T07:59:04;18.90;;;10.27;;
3547;SDS011;1788;49.400;11.092;2023-02-13T08:01:30;30.97;;;13.13;;
3547;SDS011;1788;49.400;11.092;2023-02-13T08:03:58;30.57;;;12.03;;
3547;SDS011;1788;49.400;11.092;2023-02-13T08:06:24;24.27;;;11.87;;
3547;SDS011;1788;49.400;11.092;2023-02-13T08:08:52;25.27;;;12.00;;
3547;SDS011;1788;49.400;11.092;2023-02-13T08:13:45;20.30;;;11.20;;
3547;SDS011;1788;49.400;11.092;2023-02-13T08:16:12;26.83;;;13.50;;
3547;SDS011;1788;49.400;11.092;2023-02-13T08:18:38;28.83;;;14.17;;
3547;SDS011;1788;49.400;11.092;2023-02-13T08:21:05;28.23;;;14.30;;
3547;SDS011;1788;49.400;11.092;2023-02-13T08:23:31;25.30;;;12.77;;
3547;SDS011;1788;49.400;11.092;2023-02-13T08:25:59;24.87;;;13.40;;
3547;SDS011;1788;49.400;11.092;2023-02-13T08:28:25;35.87;;;20.93;;
3547;SDS011;1788;49.400;11.092;2023-02-13T08:30:51;25.97;;;14.50;;
3547;SDS011;1788;49.400;11.092;2023-02-13T08:33:19;20.27;;;13.10;;
3547;SDS011;1788;49.400;11.092;2023-02-13T08:35:45;29.07;;;15.73;;
3547;SDS011;1788;49.400;11.092;2023-02-13T08:38:13;29.47;;;15.37;;
3547;SDS011;1788;49.400;11.092;2023-02-13T08:40:39;30.70;;;14.90;;
3547;SDS011;1788;49.400;11.092;2023-02-13T08:43:07;22.73;;;12.27;;
3547;SDS011;1788;49.400;11.092;2023-02-13T08:45:34;21.47;;;12.50;;
3547;SDS011;1788;49.400;11.092;2023-02-13T08:48:00;30.43;;;15.57;;
3547;SDS011;1788;49.400;11.092;2023-02-13T08:50:27;29.93;;;13.60;;
3547;SDS011;1788;49.400;11.092;2023-02-13T08:52:53;21.67;;;12.60;;
3547;SDS011;1788;49.400;11.092;2023-02-13T08:55:20;25.23;;;12.90;;
3547;SDS011;1788;49.400;11.092;2023-02-13T08:57:47;26.53;;;13.13;;
3547;SDS011;1788;49.400;11.092;2023-02-13T09:00:14;23.97;;;13.77;;
3547;SDS011;1788;49.400;11.092;2023-02-13T09:02:41;24.83;;;13.33;;
3547;SDS011;1788;49.400;11.092;2023-02-13T09:05:08;20.53;;;12.27;;
3547;SDS011;1788;49.400;11.092;2023-02-13T09:07:35;21.90;;;13.30;;
3547;SDS011;1788;49.400;11.092;2023-02-13T09:10:02;24.20;;;12.70;;
3547;SDS011;1788;49.400;11.092;2023-02-13T09:12:28;24.17;;;13.73;;
3547;SDS011;1788;49.400;11.092;2023-02-13T09:14:55;27.00;;;14.30;;
3547;SDS011;1788;49.400;11.092;2023-02-13T09:17:22;22.77;;;13.67;;
3547;SDS011;1788;49.400;11.092;2023-02-13T09:19:49;27.30;;;13.17;;
3547;SDS011;1788;49.400;11.092;2023-02-13T09:22:16;20.27;;;12.23;;
3547;SDS011;1788;49.400;11.092;2023-02-13T09:24:43;25.30;;;13.53;;
3547;SDS011;1788;49.400;11.092;2023-02-13T09:27:10;28.60;;;15.20;;
3547;SDS011;1788;49.400;11.092;2023-02-13T09:29:37;25.33;;;14.87;;
3547;SDS011;1788;49.400;11.092;2023-02-13T09:32:04;22.70;;;14.10;;
3547;SDS011;1788;49.400;11.092;2023-02-13T09:34:31;25.30;;;13.87;;
3547;SDS011;1788;49.400;11.092;2023-02-13T09:36:57;26.33;;;14.63;;
3547;SDS011;1788;49.400;11.092;2023-02-13T09:39:24;27.80;;;13.63;;
3547;SDS011;1788;49.400;11.092;2023-02-13T09:41:51;26.43;;;13.83;;
3547;SDS011;1788;49.400;11.092;2023-02-13T09:44:19;27.00;;;13.63;;
3547;SDS011;1788;49.400;11.092;2023-02-13T09:46:45;22.37;;;14.10;;
3547;SDS011;1788;49.400;11.092;2023-02-13T09:49:13;25.10;;;14.43;;
3547;SDS011;1788;49.400;11.092;2023-02-13T09:51:38;23.83;;;13.70;;
3547;SDS011;1788;49.400;11.092;2023-02-13T09:54:05;25.77;;;15.03;;
3547;SDS011;1788;49.400;11.092;2023-02-13T10:01:27;28.80;;;16.00;;
3547;SDS011;1788;49.400;11.092;2023-02-13T10:20:58;31.37;;;16.27;;
3547;SDS011;1788;49.400;11.092;2023-02-13T10:25:59;27.93;;;15.33;;
3547;SDS011;1788;49.400;11.092;2023-02-13T10:28:23;24.60;;;14.23;;
3547;SDS011;1788;49.400;11.092;2023-02-13T10:35:37;33.87;;;19.47;;
3547;SDS011;1788;49.400;11.092;2023-02-13T10:40:31;26.27;;;15.83;;
3547;SDS011;1788;49.400;11.092;2023-02-13T10:43:00;21.80;;;14.20;;
3547;SDS011;1788;49.400;11.092;2023-02-13T10:45:27;26.87;;;15.43;;
3547;SDS011;1788;49.400;11.092;2023-02-13T10:52:48;22.27;;;14.07;;
3547;SDS011;1788;49.400;11.092;2023-02-13T10:55:13;25.37;;;14.53;;
3547;SDS011;1788;49.400;11.092;2023-02-13T11:02:31;19.70;;;13.70;;
3547;SDS011;1788;49.400;11.092;2023-02-13T11:04:59;27.70;;;14.80;;
3547;SDS011;1788;49.400;11.092;2023-02-13T11:07:25;20.57;;;13.83;;
3547;SDS011;1788;49.400;11.092;2023-02-13T11:09:53;27.67;;;15.77;;
3547;SDS011;1788;49.400;11.092;2023-02-13T11:17:15;24.40;;;13.73;;
3547;SDS011;1788;49.400;11.092;2023-02-13T11:24:36;20.57;;;12.50;;
3547;SDS011;1788;49.400;11.092;2023-02-13T11:27:04;20.87;;;12.37;;
3547;SDS011;1788;49.400;11.092;2023-02-13T11:29:31;17.27;;;12.20;;
3547;SDS011;1788;49.400;11.092;2023-02-13T11:34:24;27.67;;;14.53;;
3547;SDS011;1788;49.400;11.092;2023-02-13T11:36:51;23.27;;;13.37;;
3547;SDS011;1788;49.400;11.092;2023-02-13T11:39:18;22.00;;;12.43;;
3547;SDS011;1788;49.400;11.092;2023-02-13T11:41:44;19.23;;;12.50;;
3547;SDS011;1788;49.400;11.092;2023-02-13T11:49:04;19.87;;;12.47;;
3547;SDS011;1788;49.400;11.092;2023-02-13T11:53:57;19.07;;;11.70;;
3547;SDS011;1788;49.400;11.092;2023-02-13T11:56:23;18.93;;;10.57;;
3547;SDS011;1788;49.400;11.092;2023-02-13T11:58:57;19.63;;;11.93;;
3547;SDS011;1788;49.400;11.092;2023-02-13T12:03:43;21.80;;;12.73;;
3547;SDS011;1788;49.400;11.092;2023-02-13T12:08:37;20.83;;;12.07;;
3547;SDS011;1788;49.400;11.092;2023-02-13T12:11:09;22.73;;;11.77;;
3547;SDS011;1788;49.400;11.092;2023-02-13T12:13:31;18.37;;;11.30;;
3547;SDS011;1788;49.400;11.092;2023-02-13T12:28:12;13.77;;;9.57;;
3547;SDS011;1788;49.400;11.092;2023-02-13T12:42:59;11.93;;;6.77;;
3547;SDS011;1788;49.400;11.092;2023-02-13T13:09:50;16.03;;;8.20;;
3547;SDS011;1788;49.400;11.092;2023-02-13T13:19:37;7.77;;;4.47;;
3547;SDS011;1788;49.400;11.092;2023-02-13T13:26:54;5.70;;;4.10;;
3547;SDS011;1788;49.400;11.092;2023-02-13T13:29:23;6.90;;;5.40;;
3547;SDS011;1788;49.400;11.092;2023-02-13T13:31:50;7.80;;;4.40;;
3547;SDS011;1788;49.400;11.092;2023-02-13T13:34:16;5.13;;;4.13;;
3547;SDS011;1788;49.400;11.092;2023-02-13T13:39:14;7.03;;;4.73;;
3547;SDS011;1788;49.400;11.092;2023-02-13T13:44:04;5.97;;;3.63;;
3547;SDS011;1788;49.400;11.092;2023-02-13T13:48:57;6.37;;;4.13;;
3547;SDS011;1788;49.400;11.092;2023-02-13T13:51:22;7.67;;;5.23;;
3547;SDS011;1788;49.400;11.092;2023-02-13T13:56:15;7.73;;;4.00;;
3547;SDS011;1788;49.400;11.092;2023-02-13T13:58:43;3.83;;;3.50;;
3547;SDS011;1788;49.400;11.092;2023-02-13T14:03:36;7.03;;;4.03;;
3547;SDS011;1788;49.400;11.092;2023-02-13T14:06:04;6.70;;;4.60;;
3547;SDS011;1788;49.400;11.092;2023-02-13T14:10:58;5.63;;;3.53;;
3547;SDS011;1788;49.400;11.092;2023-02-13T14:15:50;6.93;;;4.10;;
3547;SDS011;1788;49.400;11.092;2023-02-13T14:18:18;8.03;;;4.83;;
3547;SDS011;1788;49.400;11.092;2023-02-13T14:25:36;6.53;;;3.93;;
3547;SDS011;1788;49.400;11.092;2023-02-13T14:28:03;5.47;;;3.87;;
3547;SDS011;1788;49.400;11.092;2023-02-13T14:32:58;6.60;;;4.53;;
3547;SDS011;1788;49.400;11.092;2023-02-13T14:35:25;7.30;;;5.00;;
3547;SDS011;1788;49.400;11.092;2023-02-13T14:42:45;7.47;;;5.33;;
3547;SDS011;1788;49.400;11.092;2023-02-13T14:47:39;7.33;;;4.53;;
3547;SDS011;1788;49.400;11.092;2023-02-13T14:50:05;7.30;;;5.23;;
3547;SDS011;1788;49.400;11.092;2023-02-13T14:52:33;8.03;;;5.47;;
3547;SDS011;1788;49.400;11.092;2023-02-13T14:55:00;9.00;;;5.83;;
3547;SDS011;1788;49.400;11.092;2023-02-13T14:57:26;6.10;;;5.20;;
3547;SDS011;1788;49.400;11.092;2023-02-13T15:04:47;7.07;;;4.87;;
3547;SDS011;1788;49.400;11.092;2023-02-13T15:07:14;7.03;;;5.07;;
3547;SDS011;1788;49.400;11.092;2023-02-13T15:09:40;6.97;;;5.57;;
3547;SDS011;1788;49.400;11.092;2023-02-13T15:14:34;8.27;;;5.77;;
3547;SDS011;1788;49.400;11.092;2023-02-13T15:17:02;8.50;;;5.03;;
3547;SDS011;1788;49.400;11.092;2023-02-13T15:19:27;7.50;;;5.53;;
3547;SDS011;1788;49.400;11.092;2023-02-13T15:21:55;8.40;;;5.20;;
3547;SDS011;1788;49.400;11.092;2023-02-13T15:24:20;6.07;;;4.37;;
3547;SDS011;1788;49.400;11.092;2023-02-13T15:29:14;7.97;;;5.63;;
3547;SDS011;1788;49.400;11.092;2023-02-13T15:31:40;7.60;;;5.23;;
3547;SDS011;1788;49.400;11.092;2023-02-13T15:36:38;5.47;;;4.67;;
3547;SDS011;1788;49.400;11.092;2023-02-13T15:39:02;11.43;;;6.00;;
3547;SDS011;1788;49.400;11.092;2023-02-13T15:41:29;8.33;;;5.87;;
3547;SDS011;1788;49.400;11.092;2023-02-13T15:43:55;8.60;;;5.50;;
3547;SDS011;1788;49.400;11.092;2023-02-13T15:46:23;9.20;;;5.57;;
3547;SDS011;1788;49.400;11.092;2023-02-13T15:48:48;7.80;;;5.17;;
3547;SDS011;1788;49.400;11.092;2023-02-13T15:56:11;9.23;;;6.03;;
3547;SDS011;1788;49.400;11.092;2023-02-13T15:58:34;8.07;;;6.07;;
3547;SDS011;1788;49.400;11.092;2023-02-13T16:03:28;10.97;;;6.33;;
3547;SDS011;1788;49.400;11.092;2023-02-13T16:05:54;11.13;;;6.23;;
3547;SDS011;1788;49.400;11.092;2023-02-13T16:10:48;10.53;;;6.60;;
3547;SDS011;1788;49.400;11.092;2023-02-13T16:13:15;9.67;;;6.07;;
3547;SDS011;1788;49.400;11.092;2023-02-13T16:15:41;10.57;;;6.43;;
3547;SDS011;1788;49.400;11.092;2023-02-13T16:18:11;16.00;;;8.10;;
3547;SDS011;1788;49.400;11.092;2023-02-13T16:20:36;12.07;;;8.20;;
3547;SDS011;1788;49.400;11.092;2023-02-13T16:27:57;8.60;;;5.80;;
3547;SDS011;1788;49.400;11.092;2023-02-13T16:32:49;13.60;;;7.80;;
3547;SDS011;1788;49.400;11.092;2023-02-13T16:42:36;11.17;;;7.10;;
3547;SDS011;1788;49.400;11.092;2023-02-13T16:47:29;11.13;;;6.63;;
3547;SDS011;1788;49.400;11.092;2023-02-13T16:49:56;12.17;;;7.67;;
3547;SDS011;1788;49.400;11.092;2023-02-13T16:52:23;10.63;;;6.67;;
3547;SDS011;1788;49.400;11.092;2023-02-13T17:02:21;9.60;;;6.33;;
3547;SDS011;1788;49.400;11.092;2023-02-13T17:04:39;10.67;;;6.13;;
3547;SDS011;1788;49.400;11.092;2023-02-13T17:09:32;13.87;;;7.47;;
3547;SDS011;1788;49.400;11.092;2023-02-13T17:11:58;8.80;;;6.67;;
3547;SDS011;1788;49.400;11.092;2023-02-13T17:14:25;11.57;;;7.20;;
3547;SDS011;1788;49.400;11.092;2023-02-13T17:16:52;11.33;;;6.80;;
3547;SDS011;1788;49.400;11.092;2023-02-13T17:19:18;12.27;;;7.13;;
3547;SDS011;1788;49.400;11.092;2023-02-13T17:21:45;10.83;;;6.50;;
3547;SDS011;1788;49.400;11.092;2023-02-13T17:24:14;11.37;;;7.00;;
3547;SDS011;1788;49.400;11.092;2023-02-13T17:26:39;10.90;;;6.33;;
3547;SDS011;1788;49.400;11.092;2023-02-13T17:29:05;9.20;;;6.50;;
3547;SDS011;1788;49.400;11.092;2023-02-13T17:31:32;13.23;;;6.67;;
3547;SDS011;1788;49.400;11.092;2023-02-13T17:33:59;11.13;;;6.57;;
3547;SDS011;1788;49.400;11.092;2023-02-13T17:36:26;12.83;;;7.60;;
3547;SDS011;1788;49.400;11.092;2023-02-13T17:38:53;13.80;;;7.90;;
3547;SDS011;1788;49.400;11.092;2023-02-13T17:41:19;18.17;;;10.40;;
3547;SDS011;1788;49.400;11.092;2023-02-13T17:43:47;15.77;;;9.13;;
3547;SDS011;1788;49.400;11.092;2023-02-13T17:46:14;14.33;;;7.90;;
3547;SDS011;1788;49.400;11.092;2023-02-13T17:48:41;13.77;;;8.37;;
3547;SDS011;1788;49.400;11.092;2023-02-13T17:53:35;15.03;;;9.10;;
3547;SDS011;1788;49.400;11.092;2023-02-13T17:56:02;14.27;;;9.00;;
3547;SDS011;1788;49.400;11.092;2023-02-13T17:58:28;17.20;;;8.47;;
3547;SDS011;1788;49.400;11.092;2023-02-13T18:00:55;10.27;;;7.63;;
3547;SDS011;1788;49.400;11.092;2023-02-13T18:03:22;11.97;;;7.17;;
3547;SDS011;1788;49.400;11.092;2023-02-13T18:05:49;11.63;;;6.80;;
3547;SDS011;1788;49.400;11.092;2023-02-13T18:08:16;9.37;;;6.80;;
3547;SDS011;1788;49.400;11.092;2023-02-13T18:10:43;15.40;;;8.03;;
3547;SDS011;1788;49.400;11.092;2023-02-13T18:13:09;11.53;;;7.10;;
3547;SDS011;1788;49.400;11.092;2023-02-13T18:18:03;15.57;;;9.33;;
3547;SDS011;1788;49.400;11.092;2023-02-13T18:20:31;36.60;;;18.67;;
3547;SDS011;1788;49.400;11.092;2023-02-13T18:22:57;17.53;;;10.20;;
3547;SDS011;1788;49.400;11.092;2023-02-13T18:25:24;15.37;;;9.33;;
3547;SDS011;1788;49.400;11.092;2023-02-13T18:27:51;16.33;;;10.27;;
3547;SDS011;1788;49.400;11.092;2023-02-13T18:30:18;17.07;;;9.67;;
3547;SDS011;1788;49.400;11.092;2023-02-13T18:32:45;20.97;;;10.97;;
3547;SDS011;1788;49.400;11.092;2023-02-13T18:35:11;19.03;;;11.23;;
3547;SDS011;1788;49.400;11.092;2023-02-13T18:37:39;17.63;;;11.37;;
3547;SDS011;1788;49.400;11.092;2023-02-13T18:42:32;22.97;;;13.17;;
3547;SDS011;1788;49.400;11.092;2023-02-13T18:44:58;26.57;;;13.57;;
3547;SDS011;1788;49.400;11.092;2023-02-13T18:47:25;26.30;;;14.37;;
3547;SDS011;1788;49.400;11.092;2023-02-13T18:49:52;21.13;;;13.17;;
3547;SDS011;1788;49.400;11.092;2023-02-13T18:52:18;26.47;;;14.70;;
3547;SDS011;1788;49.400;11.092;2023-02-13T18:54:45;34.97;;;16.20;;
3547;SDS011;1788;49.400;11.092;2023-02-13T18:57:12;30.73;;;15.00;;
3547;SDS011;1788;49.400;11.092;2023-02-13T18:59:39;28.73;;;14.57;;
3547;SDS011;1788;49.400;11.092;2023-02-13T19:02:06;27.23;;;14.73;;
3547;SDS011;1788;49.400;11.092;2023-02-13T19:04:33;34.90;;;16.90;;
3547;SDS011;1788;49.400;11.092;2023-02-13T19:07:00;30.00;;;15.80;;
3547;SDS011;1788;49.400;11.092;2023-02-13T19:09:26;32.50;;;15.37;;
3547;SDS011;1788;49.400;11.092;2023-02-13T19:11:53;31.93;;;15.97;;
3547;SDS011;1788;49.400;11.092;2023-02-13T19:14:19;34.30;;;16.90;;
3547;SDS011;1788;49.400;11.092;2023-02-13T19:16:46;40.93;;;18.03;;
3547;SDS011;1788;49.400;11.092;2023-02-13T19:19:14;34.93;;;16.37;;
3547;SDS011;1788;49.400;11.092;2023-02-13T19:21:40;30.17;;;15.50;;
3547;SDS011;1788;49.400;11.092;2023-02-13T19:24:08;42.17;;;20.00;;